createdAt,value
2017-12-09T00:02:07.958Z,2.50
2017-12-09T00:05:14.060Z,3.17
2017-12-09T00:08:19.119Z,2.70
2017-12-09T00:11:27.894Z,3.03
2017-12-09T00:14:32.722Z,3.63
2017-12-09T00:17:39.156Z,3.00
2017-12-09T00:20:44.795Z,2.80
2017-12-09T00:23:50.307Z,3.20
2017-12-09T00:26:55.446Z,2.87
2017-12-09T00:30:01.251Z,3.10
2017-12-09T00:33:07.094Z,3.50
2017-12-09T00:36:12.514Z,3.50
2017-12-09T00:39:17.655Z,3.07
2017-12-09T00:42:22.627Z,3.33
2017-12-09T00:45:28.031Z,3.30
2017-12-09T00:48:33.375Z,3.20
2017-12-09T00:51:40.186Z,3.63
2017-12-09T00:54:45.610Z,3.43
2017-12-09T00:57:51.912Z,3.10
2017-12-09T01:00:57.274Z,4.33
2017-12-09T01:04:03.436Z,3.77
2017-12-09T01:07:08.396Z,4.17
2017-12-09T01:10:13.416Z,3.93
2017-12-09T01:13:18.875Z,4.13
2017-12-09T01:16:36.571Z,4.73
2017-12-09T01:19:41.636Z,3.93
2017-12-09T01:22:46.679Z,4.30
2017-12-09T01:25:52.159Z,3.60
2017-12-09T01:28:57.323Z,3.10
2017-12-09T01:32:02.944Z,4.40
2017-12-09T01:35:08.406Z,3.53
2017-12-09T01:38:13.879Z,2.87
2017-12-09T01:41:19.158Z,3.80
2017-12-09T01:44:27.743Z,3.27
2017-12-09T01:47:32.859Z,2.87
2017-12-09T01:50:38.591Z,2.90
2017-12-09T01:53:43.900Z,3.10
2017-12-09T01:56:49.854Z,3.47
2017-12-09T01:59:55.295Z,3.60
2017-12-09T02:03:00.578Z,3.47
2017-12-09T02:06:05.835Z,3.73
2017-12-09T02:09:12.032Z,3.00
2017-12-09T02:12:17.219Z,2.60
2017-12-09T02:15:22.971Z,2.23
2017-12-09T02:18:29.308Z,2.20
2017-12-09T02:21:34.843Z,2.70
2017-12-09T02:24:39.667Z,2.90
2017-12-09T02:27:45.003Z,2.77
2017-12-09T02:30:50.494Z,3.30
2017-12-09T02:33:55.515Z,3.07
2017-12-09T02:37:02.181Z,3.00
2017-12-09T02:40:07.548Z,2.17
2017-12-09T02:43:12.732Z,2.50
2017-12-09T02:46:18.590Z,2.43
2017-12-09T02:49:25.112Z,1.73
2017-12-09T02:52:30.407Z,3.10
2017-12-09T02:55:35.188Z,2.90
2017-12-09T02:58:40.447Z,2.60
2017-12-09T03:01:45.831Z,2.70
2017-12-09T03:04:51.143Z,1.80
2017-12-09T03:07:57.379Z,3.00
2017-12-09T03:11:03.038Z,3.67
2017-12-09T03:14:09.513Z,3.07
2017-12-09T03:17:16.030Z,3.10
2017-12-09T03:20:20.951Z,2.67
2017-12-09T03:23:26.531Z,3.43
2017-12-09T03:26:31.903Z,2.80
2017-12-09T03:29:37.381Z,2.43
2017-12-09T03:32:42.131Z,2.70
2017-12-09T03:35:47.006Z,2.90
2017-12-09T03:38:52.051Z,2.30
2017-12-09T03:41:58.610Z,3.30
2017-12-09T03:45:03.971Z,3.10
2017-12-09T03:48:09.029Z,2.63
2017-12-09T03:51:15.447Z,2.40
2017-12-09T03:54:20.916Z,2.80
2017-12-09T03:57:26.586Z,2.47
2017-12-09T04:00:32.192Z,2.20
2017-12-09T04:03:37.655Z,2.67
2017-12-09T04:06:43.444Z,3.20
2017-12-09T04:09:50.442Z,2.03
2017-12-09T04:12:56.546Z,2.47
2017-12-09T04:16:01.971Z,2.10
2017-12-09T04:19:07.745Z,2.30
2017-12-09T04:22:13.576Z,2.90
2017-12-09T04:25:19.381Z,2.37
2017-12-09T04:28:24.890Z,3.00
2017-12-09T04:31:31.346Z,3.40
2017-12-09T04:34:37.526Z,2.57
2017-12-09T04:37:42.343Z,2.00
2017-12-09T04:40:47.923Z,3.07
2017-12-09T04:43:53.804Z,2.40
2017-12-09T04:46:59.419Z,2.33
2017-12-09T04:50:04.357Z,2.57
2017-12-09T04:53:10.119Z,2.10
2017-12-09T04:56:16.046Z,2.43
2017-12-09T04:59:20.854Z,2.30
2017-12-09T05:02:27.307Z,2.40
2017-12-09T05:05:32.707Z,2.63
2017-12-09T05:08:37.937Z,2.40
2017-12-09T05:11:44.166Z,2.37
2017-12-09T05:14:50.300Z,3.27
2017-12-09T05:17:55.945Z,2.70
2017-12-09T05:21:01.691Z,2.63
2017-12-09T05:24:07.874Z,3.00
2017-12-09T05:27:12.722Z,1.73
2017-12-09T05:30:18.003Z,2.87
2017-12-09T05:33:23.278Z,2.47
2017-12-09T05:36:28.753Z,3.00
2017-12-09T05:39:34.542Z,2.43
2017-12-09T05:42:40.150Z,2.30
2017-12-09T05:45:45.054Z,2.33
2017-12-09T05:48:49.987Z,2.70
2017-12-09T05:51:54.910Z,2.50
2017-12-09T05:55:01.363Z,3.10
2017-12-09T05:58:07.728Z,2.40
2017-12-09T06:01:13.568Z,4.00
2017-12-09T06:04:19.274Z,3.83
2017-12-09T06:07:25.671Z,1.77
2017-12-09T06:10:30.684Z,2.90
2017-12-09T06:13:36.461Z,2.27
2017-12-09T06:16:42.046Z,3.37
2017-12-09T06:19:47.844Z,2.80
2017-12-09T06:22:53.624Z,2.83
2017-12-09T06:25:59.179Z,2.10
2017-12-09T06:29:04.275Z,2.50
2017-12-09T06:32:09.629Z,2.30
2017-12-09T06:35:15.845Z,3.40
2017-12-09T06:38:21.351Z,2.43
2017-12-09T06:41:28.056Z,2.37
2017-12-09T06:44:33.200Z,2.80
2017-12-09T06:47:38.207Z,2.90
2017-12-09T06:50:44.871Z,3.40
2017-12-09T06:53:50.232Z,2.60
2017-12-09T06:56:55.368Z,2.73
2017-12-09T07:00:01.788Z,2.20
2017-12-09T07:03:07.491Z,2.77
2017-12-09T07:06:12.368Z,2.67
2017-12-09T07:09:18.560Z,2.03
2017-12-09T07:12:24.077Z,3.20
2017-12-09T07:15:29.555Z,1.77
2017-12-09T07:18:36.870Z,1.67
2017-12-09T07:21:43.513Z,2.73
2017-12-09T07:24:48.623Z,3.10
2017-12-09T07:27:54.309Z,2.67
2017-12-09T07:31:00.751Z,1.47
2017-12-09T07:34:05.958Z,2.30
2017-12-09T07:37:11.050Z,3.33
2017-12-09T07:40:17.397Z,2.43
2017-12-09T07:43:22.464Z,2.27
2017-12-09T07:46:27.967Z,2.10
2017-12-09T07:49:33.387Z,1.70
2017-12-09T07:52:38.834Z,2.00
2017-12-09T07:55:43.676Z,1.87
2017-12-09T07:58:49.490Z,2.93
2017-12-09T08:01:55.251Z,3.03
2017-12-09T08:04:59.946Z,2.63
2017-12-09T08:08:05.941Z,2.10
2017-12-09T08:11:11.439Z,2.70
2017-12-09T08:14:18.490Z,2.47
2017-12-09T08:17:23.392Z,2.13
2017-12-09T08:20:28.373Z,2.30
2017-12-09T08:23:42.851Z,1.77
2017-12-09T08:26:48.138Z,2.97
2017-12-09T08:29:54.635Z,2.40
2017-12-09T08:33:01.505Z,2.43
2017-12-09T08:36:10.708Z,2.70
2017-12-09T08:39:16.942Z,1.80
2017-12-09T08:42:27.918Z,1.70
2017-12-09T08:45:33.406Z,2.43
2017-12-09T08:48:39.142Z,2.10
2017-12-09T08:51:47.299Z,3.80
2017-12-09T08:54:54.622Z,1.40
2017-12-09T08:57:59.742Z,2.70
2017-12-09T09:01:04.690Z,1.70
2017-12-09T09:04:09.582Z,2.30
2017-12-09T09:07:25.995Z,1.73
2017-12-09T09:10:31.788Z,3.00
2017-12-09T09:13:42.777Z,2.30
2017-12-09T09:16:50.514Z,2.20
2017-12-09T09:19:55.875Z,1.87
2017-12-09T09:23:02.515Z,1.50
2017-12-09T09:26:08.287Z,2.10
2017-12-09T09:29:13.575Z,2.03
2017-12-09T09:32:19.336Z,1.83
2017-12-09T09:35:25.247Z,2.30
2017-12-09T09:38:31.676Z,2.13
2017-12-09T09:41:37.302Z,1.93
2017-12-09T09:44:43.295Z,2.47
2017-12-09T09:47:48.470Z,2.40
2017-12-09T09:50:53.335Z,2.20
2017-12-09T09:53:59.041Z,2.10
2017-12-09T09:57:04.403Z,1.80
2017-12-09T10:00:10.472Z,2.60
2017-12-09T10:03:16.418Z,1.67
2017-12-09T10:06:22.546Z,1.87
2017-12-09T10:09:28.155Z,1.60
2017-12-09T10:12:33.360Z,1.70
2017-12-09T10:15:38.928Z,1.70
2017-12-09T10:18:43.829Z,2.03
2017-12-09T10:21:49.468Z,1.30
2017-12-09T10:24:55.638Z,2.10
2017-12-09T10:28:01.567Z,1.63
2017-12-09T10:31:06.862Z,1.77
2017-12-09T10:34:13.387Z,2.30
2017-12-09T10:37:19.135Z,1.73
2017-12-09T10:40:24.807Z,2.87
2017-12-09T10:43:31.018Z,2.50
2017-12-09T10:46:36.793Z,1.73
2017-12-09T10:49:41.550Z,1.97
2017-12-09T10:52:46.622Z,1.63
2017-12-09T10:55:53.943Z,2.20
2017-12-09T10:58:59.675Z,2.30
2017-12-09T11:02:05.306Z,2.17
2017-12-09T11:05:10.269Z,2.00
2017-12-09T11:08:15.626Z,1.90
2017-12-09T11:11:20.919Z,2.40
2017-12-09T11:14:26.027Z,2.10
2017-12-09T11:17:30.843Z,1.60
2017-12-09T11:20:37.455Z,1.80
2017-12-09T11:23:43.103Z,1.47
2017-12-09T11:26:51.005Z,2.10
2017-12-09T11:29:55.937Z,1.57
2017-12-09T11:33:01.647Z,1.30
2017-12-09T11:36:08.075Z,2.23
2017-12-09T11:39:14.641Z,1.93
2017-12-09T11:42:20.166Z,1.90
2017-12-09T11:45:26.271Z,2.87
2017-12-09T11:48:31.859Z,2.23
2017-12-09T11:51:37.323Z,2.30
2017-12-09T11:54:42.533Z,2.37
2017-12-09T11:57:47.724Z,1.80
2017-12-09T12:00:53.912Z,1.87
2017-12-09T12:03:59.531Z,1.50
2017-12-09T12:07:04.978Z,2.20
2017-12-09T12:10:10.367Z,2.23
2017-12-09T12:13:15.834Z,2.17
2017-12-09T12:16:22.331Z,2.30
2017-12-09T12:19:27.795Z,2.10
2017-12-09T12:22:34.014Z,2.50
2017-12-09T12:25:39.227Z,2.17
2017-12-09T12:28:44.902Z,2.27
2017-12-09T12:31:50.818Z,2.30
2017-12-09T12:34:59.927Z,1.40
2017-12-09T12:38:06.075Z,2.07
2017-12-09T12:41:11.663Z,1.97
2017-12-09T12:44:17.076Z,1.70
2017-12-09T12:47:21.828Z,2.10
2017-12-09T12:50:28.230Z,2.10
2017-12-09T12:53:33.608Z,2.10
2017-12-09T12:56:42.086Z,1.90
2017-12-09T12:59:48.874Z,1.47
2017-12-09T13:02:54.424Z,1.40
2017-12-09T13:06:02.003Z,1.67
2017-12-09T13:09:12.482Z,1.13
2017-12-09T13:12:19.207Z,1.57
2017-12-09T13:15:25.604Z,1.20
2017-12-09T13:18:30.980Z,1.40
2017-12-09T13:21:36.360Z,2.37
2017-12-09T13:24:49.643Z,1.83
2017-12-09T13:28:12.095Z,1.20
2017-12-09T13:31:17.066Z,1.23
2017-12-09T13:34:26.110Z,1.10
2017-12-09T13:37:31.752Z,1.60
2017-12-09T13:40:36.758Z,2.00
2017-12-09T13:43:42.075Z,1.60
2017-12-09T13:46:47.619Z,1.50
2017-12-09T13:49:52.502Z,1.53
2017-12-09T13:52:58.290Z,1.60
2017-12-09T13:56:03.947Z,2.10
2017-12-09T13:59:09.317Z,2.10
2017-12-09T14:02:22.575Z,2.70
2017-12-09T14:05:28.269Z,1.30
2017-12-09T14:08:33.458Z,2.20
2017-12-09T14:11:38.727Z,1.60
2017-12-09T14:14:44.011Z,2.13
2017-12-09T14:17:49.782Z,1.73
2017-12-09T14:20:54.704Z,1.20
2017-12-09T14:24:00.032Z,1.97
2017-12-09T14:27:06.231Z,1.73
2017-12-09T14:30:10.979Z,1.80
2017-12-09T14:33:16.339Z,1.30
2017-12-09T14:36:21.938Z,1.80
2017-12-09T14:39:27.252Z,1.27
2017-12-09T14:42:33.316Z,1.23
2017-12-09T14:45:39.018Z,1.23
2017-12-09T14:48:57.223Z,1.80
2017-12-09T14:52:06.525Z,2.47
2017-12-09T14:55:12.140Z,1.97
2017-12-09T14:58:22.399Z,1.80
2017-12-09T15:01:28.765Z,1.83
2017-12-09T15:04:33.840Z,1.90
2017-12-09T15:07:39.239Z,1.63
2017-12-09T15:10:50.847Z,1.20
2017-12-09T15:13:56.467Z,1.77
2017-12-09T15:17:05.799Z,2.50
2017-12-09T15:20:11.103Z,1.70
2017-12-09T15:23:18.293Z,2.33
2017-12-09T15:26:25.191Z,1.73
2017-12-09T15:29:43.457Z,1.40
2017-12-09T15:32:48.364Z,2.63
2017-12-09T15:35:54.095Z,1.93
2017-12-09T15:39:01.916Z,2.77
2017-12-09T15:42:07.567Z,3.00
2017-12-09T15:45:20.013Z,1.80
2017-12-09T15:48:25.141Z,2.63
2017-12-09T15:51:31.144Z,2.93
2017-12-09T15:54:38.842Z,2.73
2017-12-09T15:57:48.919Z,2.77
2017-12-09T16:00:57.910Z,2.50
2017-12-09T16:04:03.607Z,1.97
2017-12-09T16:07:13.519Z,2.40
2017-12-09T16:10:18.608Z,2.23
2017-12-09T16:13:23.587Z,2.40
2017-12-09T16:16:28.817Z,2.50
2017-12-09T16:19:34.269Z,2.07
2017-12-09T16:22:42.961Z,2.63
2017-12-09T16:25:48.815Z,2.60
2017-12-09T16:28:54.434Z,2.27
2017-12-09T16:32:00.995Z,3.43
2017-12-09T16:35:07.999Z,2.27
2017-12-09T16:38:14.694Z,1.63
2017-12-09T16:41:20.791Z,2.43
2017-12-09T16:44:25.723Z,2.77
2017-12-09T16:47:30.661Z,1.90
2017-12-09T16:50:43.523Z,2.57
2017-12-09T16:53:49.094Z,2.13
2017-12-09T16:56:54.675Z,2.20
2017-12-09T17:00:00.248Z,2.03
2017-12-09T17:03:05.269Z,1.60
2017-12-09T17:06:12.740Z,1.73
2017-12-09T17:09:18.518Z,2.40
2017-12-09T17:12:23.820Z,2.27
2017-12-09T17:15:29.771Z,1.97
2017-12-09T17:18:36.114Z,1.77
2017-12-09T17:21:51.967Z,2.57
2017-12-09T17:24:57.832Z,2.70
2017-12-09T17:28:03.429Z,2.47
2017-12-09T17:31:08.906Z,2.50
2017-12-09T17:34:14.875Z,2.07
2017-12-09T17:37:20.800Z,2.20
2017-12-09T17:40:26.028Z,2.37
2017-12-09T17:43:31.293Z,2.27
2017-12-09T17:46:36.867Z,2.27
2017-12-09T17:49:43.670Z,2.30
2017-12-09T17:52:48.566Z,2.03
2017-12-09T17:55:54.543Z,2.43
2017-12-09T17:59:00.411Z,1.77
2017-12-09T18:02:05.708Z,2.30
2017-12-09T18:05:10.955Z,1.80
2017-12-09T18:08:16.544Z,2.47
2017-12-09T18:11:23.393Z,2.33
2017-12-09T18:14:28.756Z,1.63
2017-12-09T18:17:34.248Z,1.57
2017-12-09T18:20:39.312Z,1.80
2017-12-09T18:23:44.191Z,2.23
2017-12-09T18:26:49.793Z,2.20
2017-12-09T18:29:54.922Z,2.10
2017-12-09T18:33:00.426Z,1.80
2017-12-09T18:36:05.432Z,2.63
2017-12-09T18:39:10.895Z,1.90
2017-12-09T18:42:17.774Z,2.60
2017-12-09T18:45:22.864Z,2.70
2017-12-09T18:48:28.086Z,2.60
2017-12-09T18:51:33.825Z,2.13
2017-12-09T18:54:39.558Z,2.37
2017-12-09T18:57:44.851Z,2.37
2017-12-09T19:00:51.155Z,2.20
2017-12-09T19:03:59.086Z,2.10
2017-12-09T19:07:04.355Z,2.13
2017-12-09T19:10:09.980Z,2.00
2017-12-09T19:13:17.252Z,2.57
2017-12-09T19:16:23.781Z,1.70
2017-12-09T19:19:29.900Z,1.70
2017-12-09T19:22:35.267Z,2.27
2017-12-09T19:25:40.484Z,2.17
2017-12-09T19:28:46.787Z,1.93
2017-12-09T19:31:52.429Z,1.90
2017-12-09T19:34:59.184Z,1.93
2017-12-09T19:38:05.708Z,2.10
2017-12-09T19:41:11.967Z,1.67
2017-12-09T19:44:17.803Z,1.90
2017-12-09T19:47:24.626Z,2.03
2017-12-09T19:50:33.004Z,1.73
2017-12-09T19:53:38.707Z,1.70
2017-12-09T19:56:45.459Z,1.80
2017-12-09T19:59:53.847Z,1.97
2017-12-09T20:03:05.737Z,1.70
2017-12-09T20:06:11.072Z,1.60
2017-12-09T20:09:19.446Z,1.80
2017-12-09T20:12:28.111Z,2.40
2017-12-09T20:15:34.392Z,2.10
2017-12-09T20:18:39.851Z,2.17
2017-12-09T20:21:45.208Z,2.47
2017-12-09T20:24:50.668Z,2.80
2017-12-09T20:27:56.788Z,2.20
2017-12-09T20:31:02.481Z,1.37
2017-12-09T20:34:08.808Z,1.63
2017-12-09T20:37:14.551Z,1.90
2017-12-09T20:40:20.123Z,1.80
2017-12-09T20:43:24.938Z,1.60
2017-12-09T20:46:31.750Z,2.03
2017-12-09T20:49:36.483Z,1.77
2017-12-09T20:52:41.850Z,2.47
2017-12-09T20:55:47.317Z,2.27
2017-12-09T20:58:52.073Z,2.00
2017-12-09T21:01:57.425Z,2.43
2017-12-09T21:05:03.211Z,1.80
2017-12-09T21:08:09.175Z,1.77
2017-12-09T21:11:14.521Z,1.50
2017-12-09T21:14:19.765Z,1.80
2017-12-09T21:17:25.220Z,1.60
2017-12-09T21:20:31.138Z,1.97
2017-12-09T21:23:36.353Z,1.93
2017-12-09T21:26:42.624Z,1.90
2017-12-09T21:29:47.767Z,2.10
2017-12-09T21:32:53.793Z,1.90
2017-12-09T21:36:05.512Z,2.40
2017-12-09T21:39:11.227Z,2.03
2017-12-09T21:42:17.827Z,2.47
2017-12-09T21:45:23.255Z,2.30
2017-12-09T21:48:28.919Z,2.10
2017-12-09T21:51:34.280Z,2.30
2017-12-09T21:54:40.853Z,2.23
2017-12-09T21:57:46.023Z,2.83
2017-12-09T22:00:51.148Z,3.33
2017-12-09T22:03:56.708Z,2.60
2017-12-09T22:07:02.099Z,2.90
2017-12-09T22:10:07.469Z,2.40
2017-12-09T22:13:12.452Z,3.07
2017-12-09T22:16:21.276Z,2.80
2017-12-09T22:19:35.639Z,3.10
2017-12-09T22:22:45.357Z,3.60
2017-12-09T22:25:51.183Z,3.00
2017-12-09T22:28:56.482Z,3.47
2017-12-09T22:32:06.166Z,3.30
2017-12-09T22:35:29.605Z,3.30
2017-12-09T22:38:34.748Z,3.10
2017-12-09T22:41:39.555Z,3.03
2017-12-09T22:44:46.017Z,3.00
2017-12-09T22:47:53.143Z,2.73
2017-12-09T22:50:59.164Z,3.17
2017-12-09T22:54:04.802Z,2.93
2017-12-09T22:57:15.896Z,3.20
2017-12-09T23:00:31.307Z,2.80
2017-12-09T23:03:37.715Z,3.37
2017-12-09T23:06:43.883Z,3.43
2017-12-09T23:09:51.720Z,3.00
2017-12-09T23:12:58.043Z,3.40
2017-12-09T23:16:03.890Z,3.50
2017-12-09T23:19:09.186Z,3.20
2017-12-09T23:22:14.395Z,3.53
2017-12-09T23:25:19.129Z,3.40
2017-12-09T23:28:25.249Z,3.17
2017-12-09T23:31:30.974Z,2.80
2017-12-09T23:34:36.639Z,3.13
2017-12-09T23:37:41.512Z,2.80
2017-12-09T23:40:46.510Z,3.43
2017-12-09T23:43:52.186Z,3.40
2017-12-09T23:46:58.218Z,3.43
2017-12-09T23:50:03.731Z,2.67
2017-12-09T23:53:10.348Z,3.80
2017-12-09T23:56:15.396Z,4.17
2017-12-09T23:59:20.440Z,3.10
